Ink, Ohio
Current Conditions -  °F | °C
As of 5:53 AM on Saturday 25 Oct 2014 (Local Time) from KFDY Reporting Station
Broken Clouds Broken Clouds  
Wind Chill: 52°   Ceiling: 10000
Heat Index: 52°   Visibility: 7mi
Dew Point: 48°   Wind: 9mph
Humidity: 86%   Direction: 210°SSW
Pressure: 29.92"   Gusts: NA
Location:  41.154°N, 83.2212°W
Report Text: KFDY 250953Z AUTO 21008KT 7SM FEW085 BKN100 11/09 A2992 RMK AO2 SLP127 T01110089
Loading
Personal Weather Stations






























Interactive Weather Map
Tropical Storm Tracking
New forecast layout! Learn more

10-Day Weather Forecast

Advertisements
Track Severe Weather on mobile